Time;durP1;ratioP1;P1;durP2;ratioP2;P2;SDS_P1;SDS_P2;PMS_P1;PMS_P2;Temp;Humidity;BMP_temperature;BMP_pressure;BME280_temperature;BME280_humidity;BME280_pressure;Samples;Min_cycle;Max_cycle;Signal;HPM_P1;HPM_P2
2022/05/10 00:01:29;;;;;;;1.27;1.27;;;16.50;99.90;;;;;;4988725;28;20315;-67
2022/05/10 00:03:57;;;;;;;1.20;1.20;;;16.50;99.90;;;;;;4986286;28;20242;-67
2022/05/10 00:06:25;;;;;;;1.20;1.20;;;16.50;99.90;;;;;;4982444;28;20254;-67
2022/05/10 00:08:52;;;;;;;1.17;1.17;;;16.50;99.90;;;;;;4981474;28;20226;-72
2022/05/10 00:11:20;;;;;;;1.20;1.20;;;16.40;99.90;;;;;;4980418;28;20648;-67
2022/05/10 00:13:47;;;;;;;1.20;1.20;;;16.40;99.90;;;;;;4980187;28;20241;-67
2022/05/10 00:16:16;;;;;;;1.30;1.20;;;16.30;99.90;;;;;;4980860;28;20294;-67
2022/05/10 00:18:44;;;;;;;1.10;1.10;;;16.30;99.90;;;;;;4982081;28;20226;-67
2022/05/10 00:21:13;;;;;;;1.48;1.38;;;16.30;99.90;;;;;;4982070;28;20746;-67
2022/05/10 00:23:40;;;;;;;1.20;1.20;;;16.20;99.90;;;;;;4991616;28;20234;-69
2022/05/10 00:26:07;;;;;;;1.10;1.10;;;16.20;99.90;;;;;;4989943;28;20726;-68
2022/05/10 00:28:35;;;;;;;1.30;1.30;;;16.00;99.90;;;;;;4992124;28;20268;-68
2022/05/10 00:31:02;;;;;;;1.10;1.10;;;16.00;99.90;;;;;;4992124;28;20284;-67
2022/05/10 00:33:31;;;;;;;1.20;1.20;;;16.00;99.90;;;;;;4990912;28;20210;-67
2022/05/10 00:35:59;;;;;;;1.40;1.30;;;16.00;99.90;;;;;;4989391;28;20206;-67
2022/05/10 00:38:32;;;;;;;1.20;1.20;;;15.90;99.90;;;;;;4988433;28;20321;-67
2022/05/10 00:41:06;;;;;;;1.20;1.20;;;15.90;99.90;;;;;;4992325;28;20202;-67
2022/05/10 00:43:37;;;;;;;1.10;1.10;;;15.90;99.90;;;;;;4994069;28;20722;-67
2022/05/10 00:46:10;;;;;;;1.30;1.30;;;15.90;99.90;;;;;;4994125;28;20217;-66
2022/05/10 00:48:45;;;;;;;1.17;1.17;;;15.80;99.90;;;;;;4993713;28;20226;-68
2022/05/10 00:51:18;;;;;;;1.20;1.20;;;15.70;99.90;;;;;;4981238;28;20218;-70
2022/05/10 00:53:59;;;;;;;1.40;1.30;;;15.70;99.90;;;;;;4978723;28;20267;-66
2022/05/10 00:56:34;;;;;;;1.50;1.40;;;15.70;99.90;;;;;;4977792;28;20230;-68
2022/05/10 00:59:11;;;;;;;1.30;1.30;;;15.60;99.90;;;;;;4981775;28;20627;-67
2022/05/10 01:01:39;;;;;;;1.60;1.40;;;15.60;99.90;;;;;;4981312;28;20647;-71
2022/05/10 01:04:16;;;;;;;1.20;1.20;;;15.60;99.90;;;;;;4981987;28;20297;-70
2022/05/10 01:06:49;;;;;;;1.20;1.20;;;15.50;99.90;;;;;;4984695;28;20668;-67
2022/05/10 01:09:24;;;;;;;1.45;1.35;;;15.50;99.90;;;;;;4979859;28;20223;-73
2022/05/10 01:11:57;;;;;;;1.20;1.20;;;15.50;99.90;;;;;;4980850;28;20256;-67
2022/05/10 01:14:32;;;;;;;1.20;1.20;;;15.40;99.90;;;;;;4979950;28;20278;-70
2022/05/10 01:16:59;;;;;;;1.33;1.33;;;15.50;99.90;;;;;;4980141;28;20655;-67
2022/05/10 01:19:26;;;;;;;1.40;1.33;;;15.40;99.90;;;;;;4982153;28;20238;-67
2022/05/10 01:22:06;;;;;;;1.20;1.20;;;15.40;99.90;;;;;;4982636;28;20202;-68
2022/05/10 01:24:42;;;;;;;1.23;1.23;;;15.40;99.90;;;;;;5003027;28;20209;-70
2022/05/10 01:27:40;;;;;;;1.23;1.23;;;15.40;99.90;;;;;;4986825;28;20198;-68
2022/05/10 01:30:11;;;;;;;1.25;1.25;;;15.30;99.90;;;;;;4979434;28;20234;-71
2022/05/10 01:35:32;;;;;;;1.20;1.20;;;15.20;99.90;;;;;;4987218;28;20202;-67
2022/05/10 01:38:06;;;;;;;1.67;1.50;;;15.20;99.90;;;;;;4986419;28;20223;-68
2022/05/10 01:40:36;;;;;;;1.20;1.20;;;15.10;99.90;;;;;;4983891;28;20203;-70
2022/05/10 01:43:09;;;;;;;1.30;1.30;;;15.10;99.90;;;;;;4984913;28;20329;-67
2022/05/10 01:45:41;;;;;;;1.20;1.20;;;15.10;99.90;;;;;;4986156;28;20230;-67
2022/05/10 01:48:13;;;;;;;1.20;1.20;;;15.10;99.90;;;;;;4981226;28;20270;-67
2022/05/10 01:50:45;;;;;;;1.30;1.30;;;15.10;99.90;;;;;;4983026;28;20254;-68
2022/05/10 01:53:16;;;;;;;1.40;1.30;;;15.10;99.90;;;;;;4979372;28;20289;-67
2022/05/10 01:55:45;;;;;;;1.50;1.40;;;15.00;99.90;;;;;;4982366;28;20202;-67
2022/05/10 01:58:15;;;;;;;1.60;1.50;;;15.00;99.90;;;;;;4982173;28;20779;-66
2022/05/10 02:00:48;;;;;;;1.40;1.40;;;14.90;99.90;;;;;;4981722;28;20266;-66
2022/05/10 02:03:19;;;;;;;1.20;1.20;;;14.90;99.90;;;;;;4986424;28;20221;-67
2022/05/10 02:05:54;;;;;;;1.40;1.40;;;14.90;99.90;;;;;;4994353;28;20210;-68
2022/05/10 02:08:31;;;;;;;1.57;1.47;;;14.90;99.90;;;;;;4994408;28;20241;-67
2022/05/10 02:11:02;;;;;;;1.40;1.40;;;14.90;99.90;;;;;;4993221;28;20293;-66
2022/05/10 02:13:40;;;;;;;1.20;1.20;;;14.80;99.90;;;;;;4993827;28;20285;-67
2022/05/10 02:16:16;;;;;;;1.40;1.40;;;14.80;99.90;;;;;;4994008;28;20241;-67
2022/05/10 02:18:49;;;;;;;1.40;1.40;;;14.60;99.90;;;;;;4993761;28;20222;-68
2022/05/10 02:21:21;;;;;;;1.50;1.50;;;14.60;99.90;;;;;;4993078;28;20699;-70
2022/05/10 02:23:55;;;;;;;1.30;1.30;;;14.60;99.90;;;;;;4993873;28;20312;-67
2022/05/10 02:26:26;;;;;;;1.40;1.40;;;14.70;99.90;;;;;;4993673;28;20286;-67
2022/05/10 02:29:01;;;;;;;1.40;1.40;;;14.70;99.90;;;;;;4993344;28;20234;-68
2022/05/10 02:33:06;;;;;;;1.20;1.20;;;14.60;99.90;;;;;;4993065;28;20205;-68
2022/05/10 02:34:22;;;;;;;1.40;1.30;;;14.60;99.90;;;;;;4993212;28;20213;-70
2022/05/10 02:36:49;;;;;;;1.50;1.40;;;14.60;99.90;;;;;;4995302;28;20202;-71
2022/05/10 02:39:16;;;;;;;1.40;1.40;;;14.50;99.90;;;;;;5010037;28;20312;-70
2022/05/10 02:41:43;;;;;;;1.50;1.50;;;14.40;99.90;;;;;;5002526;28;20269;-68
2022/05/10 02:44:09;;;;;;;1.30;1.30;;;14.40;99.90;;;;;;5007797;28;20226;-70
2022/05/10 02:46:38;;;;;;;1.57;1.50;;;14.30;99.90;;;;;;5001272;28;20186;-70
2022/05/10 02:49:05;;;;;;;1.20;1.20;;;14.40;99.90;;;;;;5007504;28;20237;-72
2022/05/10 02:51:32;;;;;;;1.40;1.40;;;14.30;99.90;;;;;;4996353;28;20309;-67
2022/05/10 02:53:59;;;;;;;1.50;1.40;;;14.40;99.90;;;;;;4993159;28;20245;-68
2022/05/10 02:56:29;;;;;;;1.60;1.53;;;14.40;99.90;;;;;;4992384;28;20264;-68
2022/05/10 02:58:59;;;;;;;1.37;1.37;;;14.40;99.90;;;;;;4992816;28;20308;-70
2022/05/10 03:01:34;;;;;;;1.30;1.30;;;14.40;99.90;;;;;;4992012;28;20198;-69
2022/05/10 03:04:03;;;;;;;1.60;1.50;;;14.40;99.90;;;;;;4992648;28;20214;-68
2022/05/10 03:06:31;;;;;;;1.50;1.40;;;14.40;99.90;;;;;;4992349;28;20206;-67
2022/05/10 03:09:00;;;;;;;1.47;1.47;;;14.40;99.90;;;;;;4992877;28;20229;-68
2022/05/10 03:11:27;;;;;;;1.40;1.40;;;14.40;99.90;;;;;;4991767;28;20284;-68
2022/05/10 03:13:55;;;;;;;1.30;1.30;;;14.40;99.90;;;;;;5002146;28;20672;-69
2022/05/10 03:16:23;;;;;;;1.30;1.30;;;14.40;99.90;;;;;;5004256;28;20676;-68
2022/05/10 03:18:51;;;;;;;1.50;1.40;;;14.40;99.90;;;;;;4993446;28;20226;-70
2022/05/10 03:21:20;;;;;;;1.57;1.47;;;14.40;99.90;;;;;;4992694;28;20206;-69
2022/05/10 03:23:47;;;;;;;1.30;1.30;;;14.40;99.90;;;;;;4993004;28;20297;-69
2022/05/10 03:26:17;;;;;;;1.40;1.40;;;14.40;99.90;;;;;;4996387;28;20301;-67
2022/05/10 03:28:44;;;;;;;1.27;1.27;;;14.40;99.90;;;;;;4996421;28;20250;-68
2022/05/10 03:31:14;;;;;;;1.73;1.60;;;14.30;99.90;;;;;;4993822;28;20224;-67
2022/05/10 03:33:41;;;;;;;1.40;1.40;;;14.20;99.90;;;;;;4993734;28;20213;-69
2022/05/10 03:36:08;;;;;;;1.40;1.40;;;14.20;99.90;;;;;;4993847;28;20260;-71
2022/05/10 03:38:37;;;;;;;1.53;1.43;;;14.10;99.90;;;;;;4993752;28;20280;-67
2022/05/10 03:41:04;;;;;;;1.40;1.40;;;14.10;99.90;;;;;;4993498;28;20574;-69
2022/05/10 03:43:31;;;;;;;1.50;1.50;;;14.10;99.90;;;;;;4993792;28;20308;-70
2022/05/10 03:45:58;;;;;;;1.70;1.60;;;14.10;99.90;;;;;;4992322;28;20309;-68
2022/05/10 03:48:25;;;;;;;1.70;1.60;;;14.10;99.90;;;;;;4982383;28;20233;-69
2022/05/10 03:50:52;;;;;;;2.00;1.90;;;14.10;99.90;;;;;;4983469;28;20256;-70
2022/05/10 03:53:19;;;;;;;2.00;1.90;;;14.10;99.90;;;;;;4980069;28;20203;-72
2022/05/10 03:55:47;;;;;;;1.40;1.40;;;14.00;99.90;;;;;;4979850;28;20215;-69
2022/05/10 03:58:14;;;;;;;1.70;1.60;;;14.00;99.90;;;;;;4979177;28;20254;-68
2022/05/10 04:00:41;;;;;;;1.48;1.45;;;14.00;99.90;;;;;;4979141;28;20203;-70
2022/05/10 04:03:08;;;;;;;1.77;1.67;;;13.90;99.90;;;;;;4978223;28;20226;-68
2022/05/10 04:05:35;;;;;;;1.50;1.40;;;13.90;99.90;;;;;;4977852;28;20202;-71
2022/05/10 04:08:02;;;;;;;1.60;1.50;;;13.90;99.90;;;;;;4978641;28;20317;-71
2022/05/10 04:10:29;;;;;;;1.70;1.60;;;13.90;99.90;;;;;;4977645;28;20278;-72
2022/05/10 04:12:57;;;;;;;1.83;1.73;;;13.90;99.90;;;;;;4977872;28;20275;-69
2022/05/10 04:15:24;;;;;;;1.30;1.30;;;13.90;99.90;;;;;;4977502;28;20661;-69
2022/05/10 04:17:52;;;;;;;1.63;1.52;;;13.90;99.90;;;;;;4977302;28;20324;-72
2022/05/10 04:20:19;;;;;;;1.40;1.40;;;14.00;99.90;;;;;;4976757;28;20692;-67
2022/05/10 04:22:46;;;;;;;1.50;1.50;;;14.00;99.90;;;;;;4977695;28;20643;-68
2022/05/10 04:25:13;;;;;;;1.50;1.40;;;14.10;99.90;;;;;;4977385;28;20254;-67
2022/05/10 04:27:41;;;;;;;1.42;1.42;;;14.10;99.90;;;;;;4978014;28;20261;-68
2022/05/10 04:30:11;;;;;;;1.50;1.50;;;14.20;99.90;;;;;;4983465;28;20245;-70
2022/05/10 04:32:38;;;;;;;1.70;1.60;;;14.20;99.90;;;;;;4988948;28;20828;-69
2022/05/10 04:35:06;;;;;;;1.40;1.40;;;14.30;99.90;;;;;;4991508;28;20281;-67
2022/05/10 04:37:33;;;;;;;1.70;1.60;;;14.30;99.90;;;;;;4990632;28;20293;-67
2022/05/10 04:42:45;;;;;;;1.50;1.40;;;14.40;99.90;;;;;;4997032;28;20711;-67
2022/05/10 04:45:14;;;;;;;1.40;1.40;;;14.50;99.90;;;;;;4998694;28;20213;-71
2022/05/10 04:47:41;;;;;;;1.35;1.35;;;14.50;99.90;;;;;;4997509;28;20242;-68
2022/05/10 04:50:09;;;;;;;1.20;1.20;;;14.60;99.90;;;;;;4992456;28;20224;-68
2022/05/10 04:52:36;;;;;;;1.63;1.53;;;14.60;99.90;;;;;;4986837;28;20295;-68
2022/05/10 04:55:04;;;;;;;1.60;1.50;;;14.70;99.90;;;;;;4996113;28;20288;-68
2022/05/10 04:57:31;;;;;;;1.40;1.30;;;14.70;99.90;;;;;;4982578;28;20234;-65
2022/05/10 04:59:58;;;;;;;1.30;1.30;;;14.80;99.90;;;;;;4985211;28;20299;-66
2022/05/10 05:02:27;;;;;;;1.30;1.30;;;14.80;99.90;;;;;;4991951;28;20238;-66
2022/05/10 05:04:53;;;;;;;1.40;1.40;;;14.80;99.90;;;;;;5004909;28;20323;-66
2022/05/10 05:07:20;;;;;;;1.30;1.30;;;14.90;99.90;;;;;;5007847;28;20283;-66
2022/05/10 05:09:47;;;;;;;1.53;1.43;;;15.10;99.90;;;;;;5009528;28;20313;-66
2022/05/10 05:12:14;;;;;;;1.30;1.30;;;15.20;99.90;;;;;;4986265;28;20638;-66
2022/05/10 05:14:41;;;;;;;1.30;1.30;;;15.30;99.90;;;;;;4984584;28;20211;-66
2022/05/10 05:17:08;;;;;;;1.20;1.20;;;15.50;99.90;;;;;;4988371;28;20266;-66
2022/05/10 05:19:36;;;;;;;1.30;1.30;;;15.60;99.90;;;;;;4984120;28;20662;-67
2022/05/10 05:22:04;;;;;;;1.38;1.38;;;15.80;99.90;;;;;;4990693;28;20293;-66
2022/05/10 05:24:31;;;;;;;1.60;1.50;;;15.90;99.90;;;;;;4984928;28;20254;-67
2022/05/10 05:26:58;;;;;;;1.50;1.50;;;15.90;99.90;;;;;;4990389;28;20722;-67
2022/05/10 05:29:25;;;;;;;1.33;1.30;;;16.10;99.90;;;;;;4985460;28;20341;-67
2022/05/10 05:31:53;;;;;;;1.20;1.20;;;16.20;99.90;;;;;;4989310;28;20210;-67
2022/05/10 05:34:20;;;;;;;1.40;1.40;;;16.40;99.90;;;;;;4979812;28;20207;-66
2022/05/10 05:37:32;;;;;;;1.40;1.40;;;16.50;99.90;;;;;;4988422;28;20262;-67
2022/05/10 05:39:36;;;;;;;1.40;1.40;;;16.60;99.90;;;;;;4983040;28;20236;-67
2022/05/10 05:42:03;;;;;;;1.40;1.40;;;16.70;99.90;;;;;;4988949;28;20681;-67
2022/05/10 05:44:30;;;;;;;1.30;1.30;;;16.80;99.90;;;;;;4991295;28;20306;-67
2022/05/10 05:46:57;;;;;;;1.67;1.58;;;16.90;99.90;;;;;;4988718;28;20306;-67
2022/05/10 05:49:26;;;;;;;1.30;1.30;;;16.90;99.90;;;;;;5026776;22;20220;-64
2022/05/10 05:51:58;;;;;;;1.23;1.23;;;17.10;99.90;;;;;;5053028;28;20277;-63
2022/05/10 05:54:25;;;;;;;1.47;1.43;;;17.20;99.90;;;;;;5053532;28;20210;-63
2022/05/10 05:56:58;;;;;;;1.30;1.30;;;17.20;99.90;;;;;;5052707;28;20243;-64
2022/05/10 05:59:25;;;;;;;1.60;1.50;;;17.30;99.90;;;;;;5044244;28;20303;-64
2022/05/10 06:01:52;;;;;;;1.38;1.27;;;17.40;99.90;;;;;;5038525;28;20295;-63
2022/05/10 06:04:19;;;;;;;1.40;1.40;;;17.50;99.90;;;;;;5044815;28;20259;-63
2022/05/10 06:06:46;;;;;;;1.60;1.50;;;17.50;99.90;;;;;;5040979;28;20680;-62
2022/05/10 06:09:14;;;;;;;1.77;1.67;;;17.60;99.90;;;;;;5040978;28;20220;-64
2022/05/10 06:11:41;;;;;;;1.60;1.50;;;17.60;99.90;;;;;;5041804;28;20216;-62
2022/05/10 06:14:08;;;;;;;1.60;1.50;;;17.70;99.90;;;;;;5043730;28;20283;-63
2022/05/10 06:16:35;;;;;;;1.70;1.60;;;17.80;99.90;;;;;;5048561;28;20243;-63
2022/05/10 06:19:02;;;;;;;1.80;1.70;;;17.90;99.90;;;;;;5034905;28;20263;-63
2022/05/10 06:21:29;;;;;;;1.50;1.40;;;17.90;99.90;;;;;;5033619;28;20201;-63
2022/05/10 06:23:56;;;;;;;2.28;2.00;;;18.00;99.90;;;;;;5032631;28;20311;-64
2022/05/10 06:26:24;;;;;;;1.60;1.50;;;18.10;99.90;;;;;;5032478;28;20291;-62
2022/05/10 06:28:51;;;;;;;1.50;1.40;;;18.20;99.90;;;;;;5032703;28;20303;-63
2022/05/10 06:31:18;;;;;;;1.47;1.47;;;18.20;99.90;;;;;;5031769;28;20288;-63
2022/05/10 06:33:45;;;;;;;1.30;1.30;;;18.30;99.90;;;;;;5032613;28;20291;-62
2022/05/10 06:36:12;;;;;;;1.63;1.52;;;18.30;99.90;;;;;;5032441;28;20299;-62
2022/05/10 06:38:40;;;;;;;1.67;1.57;;;18.40;99.90;;;;;;5032470;28;20235;-63
2022/05/10 06:41:07;;;;;;;1.30;1.30;;;18.40;99.90;;;;;;5032569;28;20204;-63
2022/05/10 06:43:38;;;;;;;1.48;1.38;;;18.60;99.90;;;;;;5043074;28;20243;-62
2022/05/10 06:46:09;;;;;;;1.50;1.47;;;18.70;99.90;;;;;;5040266;28;20205;-63
2022/05/10 06:48:36;;;;;;;1.50;1.40;;;18.80;99.90;;;;;;5040346;28;20699;-63
2022/05/10 06:51:06;;;;;;;1.25;1.25;;;19.00;99.90;;;;;;5034087;28;20244;-66
2022/05/10 06:53:33;;;;;;;1.40;1.30;;;19.10;99.90;;;;;;5033077;28;20573;-63
2022/05/10 06:56:00;;;;;;;1.40;1.30;;;19.20;99.90;;;;;;5033207;28;20209;-63
2022/05/10 06:58:27;;;;;;;1.30;1.30;;;19.40;99.90;;;;;;5032601;28;20232;-62
2022/05/10 07:00:55;;;;;;;1.33;1.33;;;19.50;99.90;;;;;;5036800;28;20639;-63
2022/05/10 07:03:26;;;;;;;1.25;1.25;;;19.50;99.90;;;;;;5033103;28;20236;-62
2022/05/10 07:05:53;;;;;;;1.42;1.33;;;19.70;99.90;;;;;;5032817;28;20238;-63
2022/05/10 07:08:20;;;;;;;1.20;1.20;;;19.70;99.90;;;;;;5032582;28;20311;-63
2022/05/10 07:10:47;;;;;;;1.20;1.20;;;19.90;99.90;;;;;;5031836;28;20264;-62
2022/05/10 07:13:16;;;;;;;1.20;1.20;;;20.00;99.90;;;;;;5031604;28;20299;-64
2022/05/10 07:15:44;;;;;;;1.10;1.10;;;20.20;99.90;;;;;;5031561;28;20623;-63
2022/05/10 07:18:12;;;;;;;1.25;1.10;;;20.30;99.90;;;;;;5032307;28;20231;-63
2022/05/10 07:20:39;;;;;;;1.20;1.20;;;20.50;99.90;;;;;;5031413;28;20314;-63
2022/05/10 07:23:07;;;;;;;1.35;1.35;;;20.60;99.90;;;;;;5031980;28;20734;-64
2022/05/10 07:25:34;;;;;;;1.50;1.50;;;20.80;99.90;;;;;;5031303;28;20229;-62
2022/05/10 07:28:02;;;;;;;1.42;1.33;;;20.90;99.90;;;;;;5031515;28;20271;-64
2022/05/10 07:30:30;;;;;;;1.70;1.60;;;21.00;99.90;;;;;;5031098;28;20603;-63
2022/05/10 07:32:57;;;;;;;1.55;1.50;;;21.00;99.90;;;;;;5031694;28;20212;-63
2022/05/10 07:38:08;;;;;;;1.40;1.40;;;21.00;99.90;;;;;;5031460;28;20603;-62
2022/05/10 07:40:35;;;;;;;1.50;1.50;;;21.20;99.90;;;;;;5031161;28;20259;-63
2022/05/10 07:43:02;;;;;;;1.45;1.40;;;21.30;99.90;;;;;;5031984;28;20765;-62
2022/05/10 07:45:29;;;;;;;1.40;1.40;;;21.30;99.90;;;;;;5033789;28;20323;-63
2022/05/10 07:47:56;;;;;;;1.73;1.52;;;21.40;99.90;;;;;;5033809;28;20255;-64
2022/05/10 07:50:23;;;;;;;1.20;1.20;;;21.50;99.90;;;;;;5033050;28;20238;-62
2022/05/10 07:52:51;;;;;;;1.40;1.30;;;21.60;99.90;;;;;;5034580;28;20303;-63
2022/05/10 07:55:18;;;;;;;1.10;1.10;;;21.70;99.90;;;;;;5033487;28;20283;-62
2022/05/10 07:57:45;;;;;;;1.13;1.13;;;21.90;99.90;;;;;;5033100;28;20693;-63
2022/05/10 08:00:14;;;;;;;1.30;1.30;;;22.10;99.90;;;;;;5032216;28;20252;-63
2022/05/10 08:02:43;;;;;;;1.25;1.25;;;22.30;99.90;;;;;;5032992;28;20291;-63
2022/05/10 08:05:11;;;;;;;1.15;1.15;;;22.40;99.90;;;;;;5032440;28;20236;-63
2022/05/10 08:07:37;;;;;;;1.60;1.50;;;22.40;99.90;;;;;;5032794;28;20247;-62
2022/05/10 08:10:07;;;;;;;1.30;1.30;;;22.50;99.90;;;;;;5031206;28;20231;-63
2022/05/10 08:12:34;;;;;;;1.30;1.30;;;22.40;99.90;;;;;;5031103;28;20205;-64
2022/05/10 08:15:00;;;;;;;1.33;1.33;;;22.30;99.90;;;;;;5031498;28;20215;-64
2022/05/10 08:17:27;;;;;;;1.40;1.40;;;22.30;99.90;;;;;;5031664;28;20209;-62
2022/05/10 08:19:54;;;;;;;1.50;1.40;;;22.40;99.90;;;;;;5030626;28;20259;-62
2022/05/10 08:22:21;;;;;;;1.38;1.35;;;22.40;99.90;;;;;;5031338;28;20236;-63
2022/05/10 08:24:48;;;;;;;1.52;1.42;;;22.50;99.90;;;;;;5031025;28;20308;-63
2022/05/10 08:27:16;;;;;;;1.30;1.30;;;22.80;99.90;;;;;;5030920;28;20207;-62
2022/05/10 08:29:43;;;;;;;1.85;1.30;;;22.80;99.90;;;;;;5030336;28;20582;-62
2022/05/10 08:32:10;;;;;;;1.13;1.13;;;23.00;99.90;;;;;;5030824;28;20212;-62
2022/05/10 08:34:37;;;;;;;1.33;1.33;;;23.30;99.90;;;;;;5031212;28;20200;-63
2022/05/10 08:37:04;;;;;;;1.50;1.40;;;23.50;99.90;;;;;;5030972;28;21009;-64
2022/05/10 08:39:31;;;;;;;1.35;1.35;;;23.60;99.90;;;;;;5033388;28;20229;-63
2022/05/10 08:42:02;;;;;;;1.33;1.30;;;23.50;99.90;;;;;;5034450;28;20205;-64
2022/05/10 08:44:35;;;;;;;1.70;1.60;;;23.60;99.90;;;;;;5034878;28;20362;-62
2022/05/10 08:47:06;;;;;;;1.42;1.33;;;23.60;99.90;;;;;;5034840;28;20208;-63
2022/05/10 08:49:36;;;;;;;1.40;1.40;;;23.40;99.90;;;;;;5036378;28;20232;-62
2022/05/10 08:52:05;;;;;;;1.33;1.27;;;23.70;99.90;;;;;;5035277;28;20236;-64
2022/05/10 08:54:32;;;;;;;1.60;1.40;;;23.90;99.90;;;;;;5036812;28;20207;-63
2022/05/10 08:57:04;;;;;;;1.10;1.10;;;23.90;99.90;;;;;;5037849;28;20232;-63
2022/05/10 08:59:41;;;;;;;1.20;1.20;;;23.90;99.90;;;;;;5037024;28;20220;-62
2022/05/10 09:02:12;;;;;;;1.20;1.20;;;24.00;99.90;;;;;;5035943;28;20634;-64
2022/05/10 09:04:49;;;;;;;1.08;1.08;;;24.10;99.90;;;;;;5038451;28;20315;-63
2022/05/10 09:07:27;;;;;;;1.15;1.15;;;24.40;99.90;;;;;;5039583;28;20726;-63
2022/05/10 09:10:02;;;;;;;1.17;1.17;;;24.70;99.90;;;;;;5035256;28;20756;-63
2022/05/10 09:12:30;;;;;;;1.20;1.20;;;24.80;99.90;;;;;;5035528;28;20200;-63
2022/05/10 09:15:01;;;;;;;1.10;1.10;;;24.80;99.90;;;;;;5035013;28;20639;-63
2022/05/10 09:17:30;;;;;;;1.20;1.20;;;24.80;99.90;;;;;;5035846;28;20205;-63
2022/05/10 09:19:57;;;;;;;1.20;1.20;;;24.90;99.90;;;;;;5034080;28;20553;-63
2022/05/10 09:22:39;;;;;;;1.13;1.13;;;25.00;99.90;;;;;;5034581;28;20291;-63
2022/05/10 09:25:14;;;;;;;1.15;1.10;;;24.80;99.90;;;;;;5033814;28;20282;-63
2022/05/10 09:27:41;;;;;;;1.15;1.15;;;25.00;99.90;;;;;;5034229;28;20204;-62
2022/05/10 09:30:24;;;;;;;1.40;1.30;;;25.00;99.90;;;;;;5034041;28;20603;-63
2022/05/10 09:35:51;;;;;;;1.27;1.27;;;25.00;99.90;;;;;;5034254;28;20322;-63
2022/05/10 09:38:19;;;;;;;1.25;1.25;;;25.10;99.90;;;;;;5034231;28;20228;-63
2022/05/10 09:40:48;;;;;;;1.17;1.17;;;25.10;99.90;;;;;;5033361;28;20228;-63
2022/05/10 09:43:22;;;;;;;1.23;1.20;;;25.10;99.90;;;;;;5034254;28;20615;-62
2022/05/10 09:46:07;;;;;;;1.10;1.10;;;25.30;99.90;;;;;;5033761;28;20224;-62
2022/05/10 09:48:34;;;;;;;1.17;1.17;;;25.60;99.90;;;;;;5033355;28;20201;-63
2022/05/10 09:51:19;;;;;;;1.20;1.20;;;25.70;99.90;;;;;;5033222;28;20257;-63
2022/05/10 09:53:46;;;;;;;1.48;1.15;;;25.80;99.90;;;;;;5033878;28;20303;-64
2022/05/10 09:56:29;;;;;;;1.20;1.20;;;25.90;99.90;;;;;;5033315;28;20662;-63
2022/05/10 09:58:58;;;;;;;1.13;1.13;;;26.00;99.90;;;;;;5035146;28;20301;-64
2022/05/10 10:01:41;;;;;;;0.93;0.93;;;26.30;99.90;;;;;;5034038;28;20263;-63
2022/05/10 10:04:19;;;;;;;1.20;1.20;;;26.50;99.90;;;;;;5033845;28;20214;-64
2022/05/10 10:06:46;;;;;;;1.10;1.10;;;26.40;99.90;;;;;;5034608;28;20851;-63
2022/05/10 10:09:30;;;;;;;1.00;1.00;;;26.40;99.90;;;;;;5033669;28;20221;-64
2022/05/10 10:11:57;;;;;;;0.98;0.98;;;26.40;99.90;;;;;;5033675;28;20208;-64
2022/05/10 10:14:39;;;;;;;1.00;1.00;;;26.40;99.90;;;;;;5032779;28;20296;-63
2022/05/10 10:17:18;;;;;;;1.00;1.00;;;26.60;99.90;;;;;;5032818;28;20579;-62
2022/05/10 10:19:50;;;;;;;1.25;1.17;;;26.50;99.90;;;;;;5031921;28;20235;-64
2022/05/10 10:22:22;;;;;;;1.10;1.10;;;26.60;99.90;;;;;;5033094;28;20225;-62
2022/05/10 10:24:54;;;;;;;1.10;1.10;;;26.60;99.90;;;;;;5032899;28;20220;-64
2022/05/10 10:27:26;;;;;;;1.10;1.10;;;26.60;99.90;;;;;;5032914;28;20211;-64
2022/05/10 10:29:57;;;;;;;1.17;1.17;;;26.60;99.90;;;;;;5032702;28;20231;-63
2022/05/10 10:32:32;;;;;;;1.00;1.00;;;26.70;99.90;;;;;;5033439;28;20295;-63
2022/05/10 10:35:05;;;;;;;1.10;1.10;;;26.40;99.90;;;;;;5033807;28;20215;-64
2022/05/10 10:37:38;;;;;;;1.00;1.00;;;26.20;99.90;;;;;;5035429;28;20211;-65
2022/05/10 10:40:13;;;;;;;1.10;1.10;;;26.50;99.90;;;;;;5039442;28;20243;-65
2022/05/10 10:42:49;;;;;;;1.10;1.10;;;26.60;99.90;;;;;;5041910;28;20701;-63
2022/05/10 10:45:17;;;;;;;1.40;1.30;;;26.70;99.90;;;;;;5034810;28;20255;-65
2022/05/10 10:47:51;;;;;;;1.17;1.17;;;26.90;99.90;;;;;;5033030;28;20240;-63
2022/05/10 10:50:24;;;;;;;1.10;1.10;;;26.90;99.90;;;;;;5031879;28;20235;-63
2022/05/10 10:52:51;;;;;;;1.00;1.00;;;26.80;99.90;;;;;;5032475;28;20311;-63
2022/05/10 10:55:21;;;;;;;1.00;1.00;;;26.90;99.90;;;;;;5032176;28;20614;-63
2022/05/10 10:58:01;;;;;;;1.13;1.13;;;27.10;99.90;;;;;;5032359;28;20208;-63
2022/05/10 11:00:35;;;;;;;0.90;0.90;;;27.30;99.90;;;;;;5031451;28;20234;-63
2022/05/10 11:03:09;;;;;;;0.95;0.95;;;27.40;99.90;;;;;;5032416;28;20230;-62
2022/05/10 11:05:47;;;;;;;1.10;1.10;;;27.60;99.90;;;;;;5032335;28;20758;-63
2022/05/10 11:08:25;;;;;;;1.00;1.00;;;27.60;99.90;;;;;;5032063;28;20709;-61
2022/05/10 11:10:57;;;;;;;0.90;0.90;;;27.30;99.90;;;;;;5031016;28;20208;-62
2022/05/10 11:13:36;;;;;;;0.93;0.93;;;27.40;99.90;;;;;;5031508;28;20619;-63
2022/05/10 11:16:15;;;;;;;1.00;1.00;;;27.50;99.90;;;;;;5032245;28;20569;-63
2022/05/10 11:18:56;;;;;;;1.00;1.00;;;27.60;99.90;;;;;;5031988;28;20587;-63
2022/05/10 11:21:33;;;;;;;1.20;1.20;;;27.60;99.90;;;;;;5031019;28;20258;-64
2022/05/10 11:24:12;;;;;;;1.30;1.20;;;27.60;99.90;;;;;;5031551;28;20214;-64
2022/05/10 11:26:55;;;;;;;0.95;0.95;;;27.60;99.90;;;;;;5031586;28;20239;-64
2022/05/10 11:29:40;;;;;;;1.02;1.02;;;27.60;99.90;;;;;;5031538;28;20229;-63
2022/05/10 11:32:24;;;;;;;0.93;0.93;;;27.70;99.90;;;;;;5031301;28;20758;-64
2022/05/10 11:35:24;;;;;;;0.98;0.98;;;27.40;99.90;;;;;;5031369;28;20915;-64
2022/05/10 11:37:56;;;;;;;1.00;1.00;;;27.40;99.90;;;;;;5014655;28;20307;-64
2022/05/10 11:40:50;;;;;;;1.00;1.00;;;27.40;99.90;;;;;;5030179;28;20221;-62
2022/05/10 11:43:42;;;;;;;1.00;1.00;;;27.60;99.90;;;;;;5030007;28;20335;-64
2022/05/10 11:46:34;;;;;;;1.00;1.00;;;27.70;99.90;;;;;;5031204;28;20226;-63
2022/05/10 11:51:57;;;;;;;0.98;0.98;;;27.90;99.90;;;;;;5042946;28;20208;-70
2022/05/10 11:54:51;;;;;;;1.05;1.05;;;28.00;99.90;;;;;;5051893;28;20291;-67
2022/05/10 11:57:20;;;;;;;0.77;0.77;;;28.20;99.90;;;;;;5051934;28;20626;-67
2022/05/10 11:59:48;;;;;;;0.90;0.90;;;28.40;99.90;;;;;;5052088;28;20311;-67
2022/05/10 12:02:45;;;;;;;0.90;0.90;;;28.40;99.90;;;;;;5052091;28;20261;-67
2022/05/10 12:05:25;;;;;;;1.00;1.00;;;28.50;99.90;;;;;;5051662;28;20211;-68
2022/05/10 12:07:55;;;;;;;0.80;0.80;;;28.60;99.90;;;;;;5052080;28;20208;-67
2022/05/10 12:10:35;;;;;;;0.80;0.80;;;28.80;99.90;;;;;;5052160;28;20245;-69
2022/05/10 12:13:04;;;;;;;0.80;0.80;;;28.80;99.90;;;;;;5055482;28;20204;-68
2022/05/10 12:21:54;;;;;;;0.80;0.80;;;29.00;99.90;;;;;;5055133;28;20223;-70
2022/05/10 12:24:43;;;;;;;0.90;0.90;;;29.00;99.90;;;;;;5056115;28;20295;-69
2022/05/10 12:27:35;;;;;;;0.80;0.80;;;28.90;99.90;;;;;;5055593;28;20228;-69
2022/05/10 12:30:12;;;;;;;0.80;0.80;;;29.00;99.90;;;;;;5054675;28;20311;-70
2022/05/10 12:32:48;;;;;;;0.90;0.90;;;29.00;99.90;;;;;;5058260;28;20302;-70
2022/05/10 12:35:40;;;;;;;1.88;0.90;;;29.00;99.90;;;;;;5060481;28;20203;-70
2022/05/10 12:38:26;;;;;;;0.90;0.90;;;28.90;99.90;;;;;;5064789;28;20242;-70
2022/05/10 12:41:09;;;;;;;0.80;0.80;;;28.90;99.90;;;;;;5068022;28;20365;-70
2022/05/10 12:44:06;;;;;;;0.90;0.90;;;29.10;99.90;;;;;;5067583;28;20207;-69
2022/05/10 12:46:45;;;;;;;0.77;0.77;;;29.20;99.90;;;;;;5069087;28;20220;-71
2022/05/10 12:49:26;;;;;;;0.88;0.88;;;29.30;99.90;;;;;;5062386;28;20297;-69
2022/05/10 12:52:13;;;;;;;0.85;0.85;;;29.20;99.90;;;;;;5057832;28;20276;-70
2022/05/10 12:54:43;;;;;;;1.20;1.10;;;29.20;99.90;;;;;;5055662;28;20211;-70
2022/05/10 12:57:17;;;;;;;0.90;0.90;;;29.10;99.90;;;;;;5055054;28;20196;-68
2022/05/10 12:59:54;;;;;;;0.90;0.90;;;28.90;99.90;;;;;;5054195;28;20323;-69
2022/05/10 13:02:22;;;;;;;0.80;0.80;;;29.00;99.90;;;;;;5056122;28;20218;-68
2022/05/10 13:04:53;;;;;;;0.82;0.82;;;28.90;99.90;;;;;;5055120;28;20240;-68
2022/05/10 13:07:43;;;;;;;0.90;0.90;;;28.80;99.90;;;;;;5055943;28;20777;-71
2022/05/10 13:10:14;;;;;;;0.95;0.95;;;28.90;99.20;;;;;;5054253;28;20224;-69
2022/05/10 13:12:45;;;;;;;0.70;0.70;;;28.90;99.30;;;;;;5054685;28;20212;-67
2022/05/10 13:15:16;;;;;;;0.80;0.80;;;28.90;99.40;;;;;;5054441;28;20294;-67
2022/05/10 13:17:45;;;;;;;0.90;0.90;;;28.90;99.90;;;;;;5054448;28;20208;-69
2022/05/10 13:20:15;;;;;;;0.90;0.90;;;29.00;99.90;;;;;;5054135;28;20295;-70
2022/05/10 13:22:50;;;;;;;0.90;0.90;;;29.10;99.90;;;;;;5054702;28;20207;-68
2022/05/10 13:25:26;;;;;;;0.85;0.85;;;29.20;99.80;;;;;;5053871;28;20200;-70
2022/05/10 13:28:08;;;;;;;0.90;0.90;;;29.20;99.20;;;;;;5054390;28;20231;-67
2022/05/10 13:30:36;;;;;;;0.80;0.80;;;29.30;99.20;;;;;;5053781;28;20238;-70